Het weer levert geen direct gevaar op.    Er zijn geen waarschuwingen afgegeven.

Onweer radar more information blitzortung!


Regen radar more information rain snow radar


Meteo Sauwerd

Weerstation Alkmaar Centrum

Weerstation Luyksgestel

Website Noardburgum

Weerstation Noordbergum



METAR rapporten vliegvelden

   
EHLW - Leeuwarden Rnlaf, Netherlands
Afstand tot: W 17 km
Gewijzigd: 20-01-2019 21:44
Freezing, Mist, Helder  
Freezing, Mist, Helder  
   Wind: ONO 3.7 km/h
Wind: ONO 3.7 km/h
Temperatuur: -5°C
Dauwpunt: -6°C
Vochtigheid: 93%
Barometer: 1022 hPa
Bewolking: Helder
Zicht: 1 km
Bewolking: Helder
EHLW 202044Z AUTO 07002KT 0700 FZFG NCD M05/M06 Q1022 RED
EHMA - Awg-1 Sea, Netherlands
Afstand tot: N 31 km
Gewijzigd: 20-01-2019 21:25
Helder  
Helder  
   Wind: Zuiden 7.4 km/h
Wind: Zuiden 7.4 km/h
Temperatuur: 1°C
Voelt als: -1°C
Dauwpunt: -3°C
Vochtigheid: 75%
Barometer: 1022 hPa
Bewolking: Helder
Bewolking: Helder
EHMA 202025Z AUTO 17004KT 100V190 //// // NCD 01/M03 Q1022 RE// W///H///
EHGG - Groningen/Eelde, Netherlands
Afstand tot: OZO 40 km
Gewijzigd: 20-01-2019 21:25
Nevel, Gedeeltelijk bewolkt  
Nevel, Gedeeltelijk bewolkt  
   Wind: NNW 1.9 km/h
Wind: NNW 1.9 km/h
Temperatuur: -5°C
Dauwpunt: -6°C
Vochtigheid: 93%
Barometer: 1022 hPa
Bewolking: Gedeeltelijk bewolkt
Zicht: 1 km
Bewolking: Gedeeltelijk bewolkt
EHGG 202025Z AUTO 33001KT 1100 R05/P2000N BR NSC M05/M06 Q1022 TEMPO 2500
EHVL - Vlieland Island, Netherlands
Afstand tot: W 72 km
Gewijzigd: 20-01-2019 21:25
Helder  
Helder  
   Wind: ZO 5.6 km/h
Wind: ZO 5.6 km/h
Temperatuur: -5°C
Voelt als: -8°C
Dauwpunt: -6°C
Vochtigheid: 93%
Barometer: 1022 hPa
Bewolking: Helder
Zicht: meer dan 10 km
Bewolking: Helder
EHVL 202025Z AUTO 14003KT 9999 NCD M05/M06 Q1022 BLU
EHMG - L9-Ff-1 Sea, Netherlands
Afstand tot: WNW 81 km
Gewijzigd: 20-01-2019 21:25
Helder  
Helder  
   Wind: Zuiden 7.4 km/h
Wind: Zuiden 7.4 km/h
Temperatuur: 4°C
Voelt als: 2°C
Dauwpunt: -5°C
Vochtigheid: 52%
Barometer: 1022 hPa
Bewolking: Helder
Zicht: meer dan 10 km
Bewolking: Helder
EHMG 202025Z AUTO 19004KT 9999 NCD 04/M05 Q1022 W///H///
EHKD - De Kooy (navy), Netherlands
Afstand tot: WZW 89 km
Gewijzigd: 20-01-2019 21:25
Grotendeels bewolkt  
Grotendeels bewolkt  
   Wind: OZO 3.7 km/h
Wind: OZO 3.7 km/h
Temperatuur: -4°C
Dauwpunt: -5°C
Vochtigheid: 93%
Barometer: 1022 hPa
Bewolking: Grotendeels bewolkt
Zicht: meer dan 10 km
Bewolking: Grotendeels bewolkt 14000 ft
EHKD 202025Z AUTO 12002KT 9999 BKN140 M04/M05 Q1022 BLU

Script ontwikkeld door  Saratoga-weather.org Aangepast voor de template door  Weerstation Leuven

U vindt ons ook hier:

Het Weer Aktueel

UK Metoffice

European Weather Network

Weather Underground

AWEKAS

Citizen Weather Observer Program (CWOP)

HAMweather, WeatherForYou, PWS Weather

Apparatuur in gebruik:

Weerstation
Davis Vantage pro 2

Weerprogramma
Meteobridge

Weercomputer
TP-Link TL-WR703N

Webleverancier
Versio

Davis Vantage pro 2

Meteobridge

TP-Link TL-WR703N

Versio